Time;durP1;ratioP1;P1;durP2;ratioP2;P2;SDS_P1;SDS_P2;PMS_P1;PMS_P2;Temp;Humidity;BMP_temperature;BMP_pressure;BME280_temperature;BME280_humidity;BME280_pressure;Samples;Min_cycle;Max_cycle;Signal;HPM_P1;HPM_P2
2022/04/16 00:00:59;;;;;;;22.03;12.20;;;;;;;14.93;52.02;99367.94;5070623;28;20199;-58
2022/04/16 00:03:26;;;;;;;17.77;13.30;;;;;;;14.88;52.39;99370.56;5070420;28;20190;-58
2022/04/16 00:05:56;;;;;;;22.40;13.97;;;;;;;14.93;52.34;99375.69;5070426;28;20212;-58
2022/04/16 00:08:26;;;;;;;13.93;12.43;;;;;;;14.87;52.79;99376.59;5071085;28;20266;-58
2022/04/16 00:10:54;;;;;;;15.33;13.30;;;;;;;14.93;52.23;99378.28;5070550;28;20270;-61
2022/04/16 00:13:22;;;;;;;15.47;13.80;;;;;;;14.93;52.26;99383.47;5069861;28;20316;-61
2022/04/16 00:15:52;;;;;;;20.13;13.00;;;;;;;14.93;52.36;99378.28;5070188;28;20187;-61
2022/04/16 00:18:22;;;;;;;14.63;12.57;;;;;;;14.85;52.47;99373.16;5070435;28;20190;-61
2022/04/16 00:20:49;;;;;;;17.33;12.60;;;;;;;14.83;53.09;99385.22;5070582;28;20236;-61
2022/04/16 00:23:19;;;;;;;33.17;25.33;;;;;;;14.80;53.55;99397.31;5070252;28;20233;-62
2022/04/16 00:25:46;;;;;;;43.77;32.37;;;;;;;14.59;53.91;99399.06;5070423;28;20770;-62
2022/04/16 00:28:13;;;;;;;34.20;27.17;;;;;;;14.61;53.83;99407.66;5070816;28;20189;-62
2022/04/16 00:30:40;;;;;;;24.17;18.07;;;;;;;14.45;55.10;99412.88;5070375;28;20687;-62
2022/04/16 00:33:08;;;;;;;31.57;22.93;;;;;;;14.41;55.05;99405.97;5070805;28;20175;-61
2022/04/16 00:35:37;;;;;;;33.97;23.07;;;;;;;14.25;55.71;99412.84;5070656;28;20199;-62
2022/04/16 00:38:04;;;;;;;34.23;24.87;;;;;;;14.07;56.06;99407.66;5070196;28;20194;-61
2022/04/16 00:40:31;;;;;;;31.10;20.10;;;;;;;13.88;57.17;99417.09;5070153;28;20221;-61
2022/04/16 00:42:58;;;;;;;24.45;18.85;;;;;;;13.82;57.46;99416.22;5070075;28;20805;-61
2022/04/16 00:45:26;;;;;;;19.77;14.80;;;;;;;13.82;56.08;99411.91;5070121;28;20217;-62
2022/04/16 00:47:54;;;;;;;18.23;14.60;;;;;;;13.73;56.14;99417.09;5070384;28;20238;-62
2022/04/16 00:50:21;;;;;;;15.30;13.70;;;;;;;13.60;56.25;99413.59;5070029;28;20191;-62
2022/04/16 00:52:49;;;;;;;18.43;14.77;;;;;;;13.37;56.91;99412.69;5070117;28;20184;-62
2022/04/16 00:55:16;;;;;;;23.97;14.97;;;;;;;13.33;57.09;99415.22;5070023;28;20192;-62
2022/04/16 00:57:44;;;;;;;19.80;14.10;;;;;;;13.29;57.31;99409.22;5070173;28;20200;-61
2022/04/16 01:00:13;;;;;;;18.27;14.20;;;;;;;13.41;57.39;99418.69;5069078;28;20458;-61
2022/04/16 01:02:41;;;;;;;17.63;14.23;;;;;;;13.39;57.02;99420.41;5070018;28;20188;-62
2022/04/16 01:05:09;;;;;;;16.77;13.70;;;;;;;13.29;57.10;99418.66;5069858;28;20295;-61
2022/04/16 01:07:36;;;;;;;18.77;13.83;;;;;;;13.23;57.76;99422.06;5069739;28;20194;-61
2022/04/16 01:10:06;;;;;;;17.13;13.63;;;;;;;13.18;57.80;99422.91;5069755;28;20199;-61
2022/04/16 01:12:33;;;;;;;18.40;13.67;;;;;;;13.21;58.19;99420.34;5069882;28;20676;-62
2022/04/16 01:15:00;;;;;;;16.50;13.63;;;;;;;13.26;58.05;99419.50;5070030;28;20223;-62
2022/04/16 01:17:26;;;;;;;17.67;13.07;;;;;;;13.21;57.94;99421.19;5073684;28;20190;-62
2022/04/16 01:19:53;;;;;;;14.10;12.43;;;;;;;13.24;57.78;99421.19;5073871;28;20195;-62
2022/04/16 01:22:21;;;;;;;14.53;12.50;;;;;;;13.25;57.69;99420.34;5074169;28;20196;-61
2022/04/16 01:24:49;;;;;;;18.37;13.30;;;;;;;13.29;57.10;99419.53;5073874;28;20176;-61
2022/04/16 01:27:17;;;;;;;12.57;11.23;;;;;;;13.25;57.44;99410.03;5073943;28;20202;-61
2022/04/16 01:29:44;;;;;;;13.60;11.87;;;;;;;13.21;57.59;99399.72;5073665;28;20733;-61
2022/04/16 01:32:11;;;;;;;14.47;11.63;;;;;;;13.18;57.59;99404.84;5074965;28;20199;-61
2022/04/16 01:34:38;;;;;;;14.80;12.53;;;;;;;12.99;58.00;99367.78;5093745;28;20203;-62
2022/04/16 01:37:06;;;;;;;14.47;12.53;;;;;;;13.21;57.43;99410.03;5093977;28;20202;-61
2022/04/16 01:39:33;;;;;;;15.93;11.60;;;;;;;13.26;57.28;99409.19;5094166;28;20251;-61
2022/04/16 01:42:01;;;;;;;13.80;11.80;;;;;;;13.14;57.56;99397.94;5093624;28;20252;-61
2022/04/16 01:44:30;;;;;;;14.60;10.77;;;;;;;13.16;57.45;99402.25;5094003;28;20249;-61
2022/04/16 01:46:57;;;;;;;13.33;10.43;;;;;;;13.12;57.48;99392.78;5093465;28;20222;-61
2022/04/16 01:49:24;;;;;;;12.10;10.90;;;;;;;13.13;57.96;99394.50;5093766;28;20191;-61
2022/04/16 01:51:51;;;;;;;13.37;11.97;;;;;;;13.11;57.91;99395.34;5093636;28;20255;-61
2022/04/16 01:54:18;;;;;;;12.77;11.20;;;;;;;13.10;57.79;99389.34;5093659;28;20194;-61
2022/04/16 01:56:45;;;;;;;14.33;11.70;;;;;;;13.10;57.75;99391.06;5093938;28;20686;-61
2022/04/16 01:59:13;;;;;;;14.10;12.60;;;;;;;13.14;57.63;99383.34;5092775;28;20545;-61
2022/04/16 02:01:40;;;;;;;14.40;12.03;;;;;;;13.19;57.69;99381.63;5093597;28;20732;-62
2022/04/16 02:04:07;;;;;;;14.83;12.33;;;;;;;13.23;57.23;99385.09;5093395;28;20278;-61
2022/04/16 02:06:35;;;;;;;15.43;11.77;;;;;;;13.24;57.03;99377.34;5093833;28;20227;-61
2022/04/16 02:09:03;;;;;;;12.30;10.97;;;;;;;13.15;57.22;99379.91;5093808;28;20193;-61
2022/04/16 02:11:29;;;;;;;13.90;11.60;;;;;;;13.11;57.38;99380.75;5093799;28;20195;-61
2022/04/16 02:13:56;;;;;;;17.73;13.00;;;;;;;13.01;57.54;99376.38;5093517;28;20233;-61
2022/04/16 02:16:25;;;;;;;13.47;12.07;;;;;;;13.02;58.09;99375.50;5093460;28;20230;-61
2022/04/16 02:18:52;;;;;;;13.07;11.67;;;;;;;13.06;58.26;99374.66;5093309;28;20599;-62
2022/04/16 02:21:20;;;;;;;21.00;12.07;;;;;;;13.02;58.36;99384.09;5093000;28;20195;-61
2022/04/16 02:23:52;;;;;;;14.80;12.43;;;;;;;13.05;57.74;99377.25;5092786;28;20191;-62
2022/04/16 02:26:20;;;;;;;18.73;12.13;;;;;;;13.05;58.09;99379.84;5092471;28;20218;-62
2022/04/16 02:28:48;;;;;;;12.07;10.87;;;;;;;12.99;58.29;99368.59;5092856;28;20673;-61
2022/04/16 02:31:15;;;;;;;12.57;10.93;;;;;;;12.86;58.09;99343.63;5093149;28;20187;-62
2022/04/16 02:33:44;;;;;;;12.70;11.40;;;;;;;13.03;57.93;99365.19;5092764;28;20560;-61
2022/04/16 02:36:11;;;;;;;15.67;12.83;;;;;;;13.05;57.98;99357.47;5092750;28;20193;-61
2022/04/16 02:38:40;;;;;;;15.93;12.33;;;;;;;13.08;57.98;99357.50;5092640;28;20634;-61
2022/04/16 02:41:07;;;;;;;15.32;12.75;;;;;;;13.10;57.76;99350.66;5092077;28;20446;-63
2022/04/16 02:43:34;;;;;;;14.20;11.53;;;;;;;13.15;57.78;99346.38;5092852;28;20179;-61
2022/04/16 02:48:47;;;;;;;16.43;10.47;;;;;;;13.16;57.28;99347.25;5092481;28;20194;-61
2022/04/16 02:51:14;;;;;;;12.77;9.80;;;;;;;13.08;57.30;99351.47;5092309;28;20198;-61
2022/04/16 02:53:41;;;;;;;13.10;10.33;;;;;;;13.11;57.51;99349.78;5092260;28;20282;-61
2022/04/16 02:56:08;;;;;;;13.63;11.82;;;;;;;13.14;57.38;99347.22;5091967;28;20522;-61
2022/04/16 02:58:35;;;;;;;13.37;11.27;;;;;;;13.12;57.13;99350.66;5092039;28;20194;-61
2022/04/16 03:01:02;;;;;;;16.60;12.00;;;;;;;13.12;58.09;99353.22;5092312;28;20202;-62
2022/04/16 03:03:30;;;;;;;16.00;12.17;;;;;;;13.05;58.54;99357.47;5091914;28;20282;-61
2022/04/16 03:05:58;;;;;;;17.60;12.07;;;;;;;13.01;58.68;99348.88;5092233;28;20183;-61
2022/04/16 03:08:25;;;;;;;12.77;11.17;;;;;;;12.96;58.57;99342.81;5091944;28;20187;-61
2022/04/16 03:10:52;;;;;;;17.27;11.70;;;;;;;12.93;58.56;99354.84;5092042;28;20301;-61
2022/04/16 03:13:20;;;;;;;18.20;12.20;;;;;;;12.76;58.63;99316.09;5091685;28;20227;-61
2022/04/16 03:18:31;;;;;;;13.20;11.63;;;;;;;12.90;58.61;99352.25;5091612;28;20249;-61
2022/04/16 03:21:00;;;;;;;14.37;11.47;;;;;;;12.85;59.23;99361.69;5091849;28;20692;-61
2022/04/16 03:23:27;;;;;;;12.07;10.27;;;;;;;12.76;58.89;99361.63;5084203;28;20282;-61
2022/04/16 03:25:56;;;;;;;13.30;11.57;;;;;;;12.63;59.76;99357.28;5078329;28;20273;-61
2022/04/16 03:28:23;;;;;;;15.00;10.23;;;;;;;12.59;59.34;99356.38;5071539;28;20191;-61
2022/04/16 03:30:50;;;;;;;10.83;9.70;;;;;;;12.44;59.70;99364.03;5083893;28;20236;-61
2022/04/16 03:33:17;;;;;;;12.90;11.00;;;;;;;12.44;59.53;99356.31;5091563;28;20205;-61
2022/04/16 03:35:44;;;;;;;15.90;11.20;;;;;;;12.41;59.91;99366.59;5091471;28;20202;-61
2022/04/16 03:38:12;;;;;;;11.33;10.10;;;;;;;12.44;59.73;99370.00;5090689;28;20187;-61
2022/04/16 03:40:40;;;;;;;14.15;11.40;;;;;;;12.49;59.28;99375.22;5090599;28;20439;-61
2022/04/16 03:43:07;;;;;;;12.20;10.90;;;;;;;12.50;59.41;99374.34;5088919;28;20187;-61
2022/04/16 03:45:36;;;;;;;16.07;10.10;;;;;;;12.48;59.15;99375.19;5089916;28;20230;-61
2022/04/16 03:48:05;;;;;;;14.83;10.07;;;;;;;12.34;59.66;99342.47;5090969;28;20750;-61
2022/04/16 03:50:33;;;;;;;12.60;9.93;;;;;;;12.49;59.84;99382.09;5090848;28;20355;-61
2022/04/16 03:53:00;;;;;;;16.30;10.07;;;;;;;12.51;59.75;99380.38;5090854;28;20280;-61
2022/04/16 04:01:02;;;;;;;11.77;9.90;;;;;;;12.51;59.40;99368.34;5091383;28;20248;-61
2022/04/16 04:03:30;;;;;;;14.40;10.50;;;;;;;12.56;59.04;99381.25;5091340;28;20183;-61
2022/04/16 04:05:59;;;;;;;11.50;10.13;;;;;;;12.60;59.22;99388.19;5091247;28;20287;-61
2022/04/16 04:08:26;;;;;;;11.50;9.90;;;;;;;12.64;59.70;99387.31;5090878;28;20705;-61
2022/04/16 04:10:55;;;;;;;12.93;10.20;;;;;;;12.69;58.55;99389.06;5083378;28;20202;-61
2022/04/16 04:13:23;;;;;;;12.73;9.77;;;;;;;12.71;58.77;99381.38;5077737;28;20262;-61
2022/04/16 04:15:50;;;;;;;14.17;9.67;;;;;;;12.74;58.71;99386.53;5070373;28;20188;-62
2022/04/16 04:18:16;;;;;;;14.03;9.63;;;;;;;12.74;58.43;99384.84;5070574;28;20634;-62
2022/04/16 04:20:43;;;;;;;12.60;8.73;;;;;;;12.78;58.59;99383.97;5070591;28;20187;-61
2022/04/16 04:23:10;;;;;;;11.33;9.10;;;;;;;12.45;58.35;99321.94;5070536;28;20203;-61
2022/04/16 04:25:37;;;;;;;13.33;10.03;;;;;;;12.92;58.30;99396.94;5070577;28;20739;-61
2022/04/16 04:28:06;;;;;;;12.97;8.97;;;;;;;12.97;57.71;99397.81;5070209;28;20725;-61
2022/04/16 04:30:33;;;;;;;15.07;10.07;;;;;;;13.01;57.84;99404.75;5084906;28;20207;-61
2022/04/16 04:33:00;;;;;;;15.87;10.37;;;;;;;13.08;57.12;99409.09;5090770;28;20278;-62
2022/04/16 04:35:27;;;;;;;15.23;9.73;;;;;;;13.15;57.21;99405.72;5090421;28;20190;-62
2022/04/16 04:37:55;;;;;;;14.05;10.13;;;;;;;13.21;56.79;99405.72;5089960;28;20435;-61
2022/04/16 04:40:22;;;;;;;11.87;9.83;;;;;;;13.29;56.38;99418.66;5090356;28;20278;-61
2022/04/16 04:42:48;;;;;;;10.87;9.77;;;;;;;13.32;56.50;99411.78;5090657;28;20569;-61
2022/04/16 04:45:18;;;;;;;16.70;11.27;;;;;;;13.34;56.41;99410.09;5090582;28;20184;-60
2022/04/16 04:47:45;;;;;;;14.10;10.70;;;;;;;13.33;56.34;99400.59;5090374;28;20209;-59
2022/04/16 04:50:12;;;;;;;17.30;10.67;;;;;;;13.36;56.81;99404.91;5076645;28;20685;-57
2022/04/16 04:52:40;;;;;;;12.97;10.50;;;;;;;13.43;56.74;99409.25;5081453;28;20637;-56
2022/04/16 04:55:09;;;;;;;12.70;10.33;;;;;;;13.37;56.52;99406.66;5089959;28;20314;-57
2022/04/16 04:57:36;;;;;;;16.43;10.83;;;;;;;13.45;56.71;99415.28;5090193;28;20197;-57
2022/04/16 05:00:04;;;;;;;13.13;11.37;;;;;;;13.44;56.53;99406.66;5090517;28;20182;-57
2022/04/16 05:02:41;;;;;;;13.10;10.27;;;;;;;13.50;56.31;99411.00;5090275;28;20210;-57
2022/04/16 05:05:08;;;;;;;12.80;10.67;;;;;;;13.53;55.90;99421.31;5084203;28;20279;-57
2022/04/16 05:07:35;;;;;;;12.07;10.77;;;;;;;13.59;56.07;99418.78;5107406;28;20222;-57
2022/04/16 05:10:02;;;;;;;11.63;10.43;;;;;;;13.68;56.07;99408.44;5110601;28;20194;-57
2022/04/16 05:12:29;;;;;;;9.93;8.83;;;;;;;13.79;55.47;99413.66;5102128;28;20281;-57
2022/04/16 05:14:56;;;;;;;12.17;9.40;;;;;;;13.76;55.34;99413.66;5089919;28;20222;-57
2022/04/16 05:17:23;;;;;;;13.40;10.17;;;;;;;13.84;55.50;99419.69;5089938;28;20188;-57
2022/04/16 05:19:51;;;;;;;12.47;9.97;;;;;;;13.90;54.93;99417.13;5089924;28;20195;-57
2022/04/16 05:22:18;;;;;;;13.97;9.73;;;;;;;13.93;54.97;99406.78;5089958;28;20191;-58
2022/04/16 05:24:45;;;;;;;11.40;10.13;;;;;;;13.98;54.91;99412.84;5089644;28;20190;-58
2022/04/16 05:27:12;;;;;;;12.67;10.27;;;;;;;13.97;54.32;99411.97;5089954;28;20219;-57
2022/04/16 05:30:06;;;;;;;11.70;10.00;;;;;;;13.93;54.63;99417.09;5090019;28;20198;-57
2022/04/16 05:32:35;;;;;;;12.70;11.33;;;;;;;13.86;54.73;99412.81;5089989;28;20190;-57
2022/04/16 05:35:04;;;;;;;17.43;10.53;;;;;;;13.95;54.61;99415.41;5089883;28;20316;-57
2022/04/16 05:37:31;;;;;;;13.95;10.98;;;;;;;14.11;54.27;99406.81;5089281;28;20428;-58
2022/04/16 05:39:57;;;;;;;19.00;11.10;;;;;;;14.32;53.86;99403.38;5090007;28;20179;-58
2022/04/16 05:42:24;;;;;;;11.40;10.20;;;;;;;14.33;53.73;99408.56;5088901;28;20289;-62
2022/04/16 05:44:51;;;;;;;11.83;10.20;;;;;;;14.41;53.45;99412.00;5087921;28;20218;-57
2022/04/16 05:47:18;;;;;;;11.07;9.23;;;;;;;14.44;53.08;99404.25;5089421;28;20302;-58
2022/04/16 05:49:45;;;;;;;12.90;9.80;;;;;;;14.52;52.91;99407.69;5085485;28;20203;-58
2022/04/16 05:52:14;;;;;;;18.10;10.13;;;;;;;14.68;52.61;99404.22;5088684;28;20205;-57
2022/04/16 05:54:41;;;;;;;12.63;10.80;;;;;;;14.76;52.53;99394.72;5088487;28;20804;-57
2022/04/16 05:57:09;;;;;;;13.10;10.47;;;;;;;14.85;52.44;99395.56;5087071;28;20543;-57
2022/04/16 05:59:37;;;;;;;11.00;9.00;;;;;;;15.00;51.68;99401.53;5088698;28;20195;-58
2022/04/16 06:02:04;;;;;;;13.47;8.73;;;;;;;14.98;51.09;99381.72;5089551;28;20272;-57
2022/04/16 06:04:31;;;;;;;13.13;8.77;;;;;;;15.21;50.63;99396.31;5087914;28;20196;-57
2022/04/16 06:06:58;;;;;;;9.90;9.00;;;;;;;15.33;49.33;99393.66;5092479;28;20215;-58
2022/04/16 06:09:26;;;;;;;10.27;8.50;;;;;;;15.48;49.21;99397.06;5092193;28;20670;-58
2022/04/16 06:11:53;;;;;;;10.97;7.70;;;;;;;15.57;48.72;99405.69;5088155;28;20313;-58
2022/04/16 06:14:20;;;;;;;14.53;9.37;;;;;;;15.67;48.83;99404.75;5092536;28;20306;-58
2022/04/16 06:16:47;;;;;;;9.00;7.53;;;;;;;15.58;48.66;99390.97;5090015;28;20199;-58
2022/04/16 06:19:14;;;;;;;10.43;7.73;;;;;;;15.75;48.42;99399.50;5075399;28;20211;-58
2022/04/16 06:21:40;;;;;;;9.10;7.97;;;;;;;15.76;48.45;99396.94;5085113;28;20217;-58
2022/04/16 06:24:07;;;;;;;9.57;7.73;;;;;;;15.76;49.11;99402.09;5092796;28;20195;-58
2022/04/16 06:26:36;;;;;;;16.00;7.40;;;;;;;15.86;48.63;99393.41;5092826;28;20230;-58
2022/04/16 06:29:03;;;;;;;8.77;7.50;;;;;;;15.87;48.66;99387.34;5092707;28;20218;-58
2022/04/16 06:31:29;;;;;;;9.93;7.73;;;;;;;15.82;49.38;99383.91;5091828;28;20657;-58
2022/04/16 06:33:56;;;;;;;11.80;8.13;;;;;;;15.82;49.82;99383.91;5092639;28;20202;-58
2022/04/16 06:36:23;;;;;;;9.20;8.30;;;;;;;15.96;49.70;99380.38;5092479;28;20188;-58
2022/04/16 06:38:50;;;;;;;10.03;8.33;;;;;;;16.10;49.77;99370.75;5092776;28;20199;-58
2022/04/16 06:41:17;;;;;;;9.83;7.80;;;;;;;16.22;49.19;99370.66;5092237;28;20196;-58
2022/04/16 06:43:45;;;;;;;13.30;9.13;;;;;;;16.39;49.24;99366.19;5092755;28;20206;-58
2022/04/16 06:46:12;;;;;;;9.93;8.77;;;;;;;16.61;48.56;99365.16;5092359;28;20750;-58
2022/04/16 06:48:39;;;;;;;9.73;7.93;;;;;;;16.79;47.85;99351.97;5108529;28;20271;-58
2022/04/16 06:51:06;;;;;;;13.40;8.95;;;;;;;16.96;48.01;99351.78;5112257;28;20442;-58
2022/04/16 06:53:33;;;;;;;10.07;7.93;;;;;;;17.13;47.51;99346.38;5112316;28;20274;-58
2022/04/16 06:56:00;;;;;;;9.93;8.17;;;;;;;17.34;46.61;99354.75;5106189;28;20198;-58
2022/04/16 06:58:29;;;;;;;11.50;8.13;;;;;;;17.37;46.13;99352.13;5090091;28;20259;-58
2022/04/16 07:00:57;;;;;;;9.33;8.00;;;;;;;17.57;45.86;99346.69;5091387;28;20194;-58
2022/04/16 07:03:24;;;;;;;10.20;7.73;;;;;;;17.72;45.33;99356.84;5092425;28;20201;-58
2022/04/16 07:05:51;;;;;;;8.90;7.37;;;;;;;17.70;44.54;99348.22;5092298;28;20285;-58
2022/04/16 07:08:18;;;;;;;12.27;8.20;;;;;;;17.84;44.56;99346.28;5093697;28;20218;-59
2022/04/16 07:10:45;;;;;;;8.37;7.57;;;;;;;18.06;44.31;99329.47;5093502;28;20205;-58
2022/04/16 07:13:12;;;;;;;9.63;7.13;;;;;;;18.24;43.78;99330.88;5091530;28;20577;-58
2022/04/16 07:15:39;;;;;;;10.83;8.23;;;;;;;18.40;43.38;99328.88;5091719;28;20191;-59
2022/04/16 07:18:08;;;;;;;8.63;6.80;;;;;;;18.63;43.34;99331.94;5091370;28;20191;-58
2022/04/16 07:20:35;;;;;;;11.53;7.53;;;;;;;18.83;42.55;99335.03;5091159;28;20206;-58
2022/04/16 07:23:02;;;;;;;7.67;6.97;;;;;;;18.91;42.06;99327.06;5091325;28;20675;-58
2022/04/16 07:25:28;;;;;;;13.07;7.63;;;;;;;19.10;42.28;99331.88;5089870;28;20194;-59
2022/04/16 07:27:56;;;;;;;7.37;6.77;;;;;;;19.16;41.75;99325.66;5090128;28;20223;-59
2022/04/16 07:30:23;;;;;;;9.33;6.80;;;;;;;19.34;41.37;99323.53;5089779;28;20201;-59
2022/04/16 07:32:51;;;;;;;9.97;7.60;;;;;;;19.49;41.33;99326.72;5089529;28;20202;-58
2022/04/16 07:35:19;;;;;;;8.80;7.33;;;;;;;19.61;41.24;99321.25;5089368;28;20186;-58
2022/04/16 07:37:46;;;;;;;9.07;7.20;;;;;;;19.65;40.64;99302.00;5089352;28;20186;-58
2022/04/16 07:40:13;;;;;;;11.70;7.07;;;;;;;19.88;40.20;99315.38;5090317;28;20191;-58
2022/04/16 07:42:40;;;;;;;10.47;7.60;;;;;;;19.66;39.83;99288.09;5090800;28;20201;-59
2022/04/16 07:45:08;;;;;;;7.40;6.60;;;;;;;19.93;39.69;99311.75;5090692;28;20189;-58
2022/04/16 07:47:35;;;;;;;11.90;6.77;;;;;;;19.99;39.82;99308.16;5090997;28;20613;-58
2022/04/16 07:50:02;;;;;;;7.70;6.40;;;;;;;19.80;39.63;99309.50;5090896;28;20696;-59
2022/04/16 07:52:30;;;;;;;8.27;6.73;;;;;;;19.75;39.32;99312.19;5090190;28;20440;-58
2022/04/16 07:54:57;;;;;;;10.03;6.47;;;;;;;19.93;39.15;99303.94;5090748;28;20199;-59
2022/04/16 07:57:24;;;;;;;7.13;6.13;;;;;;;19.80;39.15;99315.56;5090917;28;20191;-59
2022/04/16 07:59:52;;;;;;;12.07;7.20;;;;;;;19.93;39.63;99308.28;5090781;28;20190;-58
2022/04/16 08:02:19;;;;;;;10.53;6.80;;;;;;;20.05;38.69;99309.75;5090748;28;20257;-59
2022/04/16 08:04:46;;;;;;;7.13;6.43;;;;;;;20.06;38.84;99309.69;5090952;28;20191;-59
2022/04/16 08:07:13;;;;;;;13.23;7.17;;;;;;;19.89;39.08;99317.06;5091083;28;20195;-59
2022/04/16 08:09:41;;;;;;;8.03;7.23;;;;;;;19.98;39.31;99314.25;5090632;28;20608;-59
2022/04/16 08:12:09;;;;;;;11.70;7.70;;;;;;;20.40;38.97;99313.19;5090846;28;20640;-59
2022/04/16 08:14:36;;;;;;;10.67;7.53;;;;;;;20.48;38.33;99310.38;5090369;28;20309;-59
2022/04/16 08:17:03;;;;;;;8.07;7.30;;;;;;;20.60;38.18;99304.84;5090656;28;20187;-59
2022/04/16 08:19:31;;;;;;;9.30;7.27;;;;;;;20.88;37.98;99304.91;5090800;28;20195;-58
2022/04/16 08:21:58;;;;;;;8.63;7.83;;;;;;;20.97;38.20;99295.06;5090513;28;20285;-59
2022/04/16 08:24:41;;;;;;;14.60;8.40;;;;;;;21.13;38.25;99304.19;5090131;28;20274;-59
2022/04/16 08:27:09;;;;;;;10.93;8.00;;;;;;;20.97;38.00;99299.44;5090418;28;20195;-58
2022/04/16 08:29:37;;;;;;;16.47;8.23;;;;;;;20.99;38.39;99292.41;5090359;28;20265;-59
2022/04/16 08:32:06;;;;;;;12.07;7.70;;;;;;;21.02;37.97;99290.56;5090453;28;20237;-58
2022/04/16 08:34:33;;;;;;;12.50;8.33;;;;;;;21.27;37.54;99290.72;5090312;28;20213;-58
2022/04/16 08:37:00;;;;;;;9.60;8.02;;;;;;;21.40;36.91;99286.81;5089489;28;20960;-58
2022/04/16 08:39:28;;;;;;;11.43;8.50;;;;;;;21.42;36.94;99282.44;5089894;28;20277;-58
2022/04/16 08:41:56;;;;;;;11.70;8.30;;;;;;;21.58;36.82;99267.09;5089998;28;20569;-59
2022/04/16 08:44:26;;;;;;;9.57;8.23;;;;;;;21.83;36.23;99275.88;5090084;28;20534;-58
2022/04/16 08:46:54;;;;;;;16.70;8.50;;;;;;;21.78;36.58;99252.47;5089762;28;20191;-59
2022/04/16 08:49:22;;;;;;;10.77;9.67;;;;;;;21.99;36.53;99273.63;5089919;28;20219;-58
2022/04/16 08:51:50;;;;;;;17.47;9.07;;;;;;;22.25;36.27;99266.59;5089743;28;20194;-59
2022/04/16 08:54:17;;;;;;;15.83;8.83;;;;;;;22.50;36.89;99269.22;5090125;28;20201;-59
2022/04/16 08:56:43;;;;;;;12.23;9.00;;;;;;;22.45;37.48;99263.28;5089698;28;20195;-59
2022/04/16 08:59:10;;;;;;;14.63;8.33;;;;;;;22.54;37.14;99262.97;5089934;28;20197;-58
2022/04/16 09:01:39;;;;;;;17.07;8.50;;;;;;;22.50;37.19;99266.59;5089735;28;20199;-59
2022/04/16 09:04:05;;;;;;;13.83;8.97;;;;;;;22.19;37.76;99255.50;5089682;28;20191;-59
2022/04/16 09:06:32;;;;;;;12.83;9.00;;;;;;;22.47;37.27;99255.38;5089802;28;20194;-59
2022/04/16 09:09:11;;;;;;;13.40;8.90;;;;;;;22.58;36.62;99248.00;5089301;28;20226;-58
2022/04/16 09:11:39;;;;;;;14.33;10.07;;;;;;;22.79;36.72;99245.47;5090046;28;20677;-59
2022/04/16 09:14:06;;;;;;;9.13;8.03;;;;;;;23.13;35.60;99241.59;5089765;28;20598;-59
2022/04/16 09:16:33;;;;;;;11.33;7.70;;;;;;;23.34;34.33;99235.50;5089582;28;20195;-58
2022/04/16 09:19:02;;;;;;;13.87;7.53;;;;;;;23.09;34.40;99245.22;5089427;28;20731;-59
2022/04/16 09:21:29;;;;;;;19.57;12.67;;;;;;;23.26;34.48;99237.56;5090511;28;20191;-59
2022/04/16 09:24:00;;;;;;;13.57;8.70;;;;;;;23.26;33.88;99237.56;5090390;28;20195;-59
2022/04/16 09:26:32;;;;;;;13.53;8.67;;;;;;;23.49;34.00;99225.28;5100916;28;20198;-59
2022/04/16 09:29:06;;;;;;;15.70;10.10;;;;;;;23.62;33.12;99223.03;5110136;28;20226;-59
2022/04/16 09:31:34;;;;;;;13.27;8.17;;;;;;;23.46;33.42;99225.41;5090074;28;20203;-58
2022/04/16 09:34:02;;;;;;;14.50;10.13;;;;;;;23.51;34.32;99217.34;5093759;28;20474;-59
2022/04/16 09:36:30;;;;;;;16.73;10.70;;;;;;;23.61;33.77;99195.06;5110532;28;20280;-59
2022/04/16 09:39:04;;;;;;;17.43;8.53;;;;;;;23.76;33.59;99214.59;5113235;28;20620;-59
2022/04/16 09:41:32;;;;;;;13.50;7.37;;;;;;;23.75;33.73;99211.09;5114775;28;20189;-59
2022/04/16 09:44:00;;;;;;;17.20;10.07;;;;;;;23.64;33.64;99210.69;5115257;28;20194;-59
2022/04/16 09:46:29;;;;;;;63.17;28.27;;;;;;;23.73;33.65;99212.94;5113562;28;20190;-59
2022/04/16 09:49:03;;;;;;;12.60;8.50;;;;;;;23.63;32.92;99201.09;5112292;28;20279;-58
2022/04/16 09:51:35;;;;;;;21.73;9.87;;;;;;;23.71;33.29;99198.16;5090874;28;20212;-59
2022/04/16 09:54:04;;;;;;;9.43;7.70;;;;;;;23.60;33.42;99203.00;5092490;28;20454;-58
2022/04/16 09:56:34;;;;;;;9.83;7.47;;;;;;;23.32;33.17;99196.22;5093160;28;20642;-59
2022/04/16 09:59:04;;;;;;;8.73;7.80;;;;;;;23.55;32.81;99203.19;5091103;28;20365;-59
2022/04/16 10:01:32;;;;;;;10.47;7.23;;;;;;;23.80;31.87;99198.63;5091451;28;20499;-57
2022/04/16 10:04:00;;;;;;;8.03;7.07;;;;;;;23.81;32.06;99202.13;5093004;28;20199;-57
2022/04/16 10:06:30;;;;;;;6.27;5.73;;;;;;;23.79;30.70;99199.53;5093055;28;20198;-57
2022/04/16 10:08:58;;;;;;;8.90;6.70;;;;;;;23.94;30.63;99195.44;5092093;28;20225;-58
2022/04/16 10:14:29;;;;;;;7.43;6.63;;;;;;;24.46;29.04;99186.16;5089691;28;20556;-58
2022/04/16 10:17:09;;;;;;;6.67;5.63;;;;;;;24.56;29.08;99179.56;5091612;28;20195;-58
2022/04/16 10:19:40;;;;;;;9.90;5.20;;;;;;;24.17;28.50;99176.09;5091914;28;20179;-58
2022/04/16 10:22:08;;;;;;;5.93;5.43;;;;;;;24.23;28.48;99181.91;5091103;28;20183;-58
2022/04/16 10:24:35;;;;;;;11.53;6.13;;;;;;;24.13;29.12;99187.63;5091291;28;20211;-58
2022/04/16 10:27:07;;;;;;;10.23;6.10;;;;;;;24.21;29.06;99181.13;5091544;28;20211;-58
2022/04/16 10:29:38;;;;;;;6.90;6.10;;;;;;;24.50;28.81;99169.34;5091924;28;20283;-58
2022/04/16 10:32:16;;;;;;;7.05;6.00;;;;;;;24.82;28.74;99154.75;5091134;28;20536;-58
2022/04/16 10:34:44;;;;;;;9.50;5.73;;;;;;;24.39;28.42;99174.22;5090102;28;20232;-58
2022/04/16 10:37:23;;;;;;;8.70;6.20;;;;;;;24.78;28.76;99168.94;5091592;28;20198;-59
2022/04/16 10:39:53;;;;;;;8.53;6.43;;;;;;;24.73;28.94;99168.28;5090316;28;20183;-59
2022/04/16 10:42:31;;;;;;;9.43;6.00;;;;;;;24.61;28.19;99167.09;5089114;28;20236;-59
2022/04/16 10:45:09;;;;;;;10.70;6.67;;;;;;;24.82;29.60;99165.25;5089295;28;20251;-63
2022/04/16 10:47:38;;;;;;;11.70;7.03;;;;;;;24.60;29.60;99158.34;5089178;28;20557;-62
2022/04/16 10:50:09;;;;;;;7.10;6.40;;;;;;;24.89;28.63;99157.00;5090181;28;20218;-63
2022/04/16 10:52:37;;;;;;;15.87;7.13;;;;;;;25.10;29.46;99155.16;5091805;28;20190;-64
2022/04/16 10:55:06;;;;;;;7.77;6.57;;;;;;;24.88;28.59;99134.28;5091661;28;20205;-64
2022/04/16 10:57:34;;;;;;;10.97;6.27;;;;;;;24.67;28.22;99151.00;5091361;28;20191;-63
2022/04/16 11:00:13;;;;;;;5.40;5.00;;;;;;;24.42;26.06;99151.28;5091697;28;20224;-62
2022/04/16 11:02:40;;;;;;;5.10;4.60;;;;;;;24.79;26.17;99139.97;5087268;28;20195;-62
2022/04/16 11:05:09;;;;;;;5.93;5.33;;;;;;;25.05;26.36;99138.75;5087561;28;20194;-63
2022/04/16 11:07:39;;;;;;;11.43;5.37;;;;;;;25.33;27.13;99140.84;5088621;28;20672;-63
2022/04/16 11:10:08;;;;;;;8.37;5.80;;;;;;;25.53;26.29;99148.66;5090225;28;20584;-62
2022/04/16 11:12:37;;;;;;;5.37;4.60;;;;;;;25.47;25.07;99146.31;5088923;28;21095;-62
2022/04/16 11:15:10;;;;;;;6.33;5.43;;;;;;;25.22;25.16;99138.75;5090281;28;20966;-63
2022/04/16 11:17:36;;;;;;;5.93;5.33;;;;;;;25.41;26.70;99136.09;5088303;28;20187;-62
2022/04/16 11:20:06;;;;;;;10.27;7.70;;;;;;;25.57;26.60;99140.53;5090766;28;20179;-63
2022/04/16 11:22:33;;;;;;;7.07;5.53;;;;;;;25.77;25.67;99137.75;5088032;28;20274;-63
2022/04/16 11:25:06;;;;;;;6.00;5.40;;;;;;;25.74;25.95;99126.50;5090715;28;20186;-62
2022/04/16 11:35:57;;;;;;;7.80;7.07;;;;;;;26.64;24.68;99120.84;5088837;28;20193;-59
2022/04/16 11:38:29;;;;;;;5.90;5.13;;;;;;;26.69;24.20;99120.56;5089663;28;20203;-59
2022/04/16 11:40:59;;;;;;;5.05;4.20;;;;;;;26.43;23.26;99119.34;5088556;28;20294;-58
2022/04/16 11:43:28;;;;;;;5.33;4.70;;;;;;;26.34;23.60;99111.97;5090535;28;20190;-58
2022/04/16 11:45:56;;;;;;;6.40;5.10;;;;;;;26.42;24.27;99117.66;5088545;28;20191;-58
2022/04/16 11:48:23;;;;;;;7.17;5.50;;;;;;;26.50;24.50;99085.63;5073883;28;20187;-58
2022/04/16 11:50:50;;;;;;;7.50;4.63;;;;;;;26.72;24.67;99110.72;5069380;28;20645;-58